createdAt,value
2022-12-07T00:01:56.938Z,14.88
2022-12-07T00:04:24.557Z,18.77
2022-12-07T00:06:53.713Z,17.10
2022-12-07T00:09:21.472Z,16.23
2022-12-07T00:11:52.545Z,14.40
2022-12-07T00:14:20.750Z,17.55
2022-12-07T00:16:50.787Z,14.40
2022-12-07T00:19:18.441Z,13.93
2022-12-07T00:21:46.044Z,15.63
2022-12-07T00:24:13.942Z,15.13
2022-12-07T00:26:42.563Z,17.60
2022-12-07T00:29:18.319Z,14.27
2022-12-07T00:31:45.919Z,16.13
2022-12-07T00:34:15.085Z,18.55
2022-12-07T00:36:42.709Z,17.90
2022-12-07T00:39:10.303Z,17.02
2022-12-07T00:41:37.997Z,16.25
2022-12-07T00:44:05.586Z,17.75
2022-12-07T00:46:33.362Z,17.88
2022-12-07T00:49:00.934Z,16.35
2022-12-07T00:51:28.530Z,17.00
2022-12-07T00:53:56.345Z,19.10
2022-12-07T00:56:27.917Z,18.17
2022-12-07T00:58:56.795Z,17.38
2022-12-07T01:01:25.089Z,16.75
2022-12-07T01:03:52.813Z,17.60
2022-12-07T01:06:20.991Z,19.27
2022-12-07T01:08:48.602Z,18.65
2022-12-07T01:11:17.671Z,19.45
2022-12-07T01:13:45.572Z,19.30
2022-12-07T01:16:14.668Z,16.10
2022-12-07T01:18:42.465Z,20.15
2022-12-07T01:21:14.392Z,19.35
2022-12-07T01:23:42.207Z,16.52
2022-12-07T01:26:12.004Z,19.55
2022-12-07T01:28:39.921Z,20.83
2022-12-07T01:31:08.576Z,18.50
2022-12-07T01:33:37.588Z,18.80
2022-12-07T01:36:09.640Z,18.67
2022-12-07T01:38:37.230Z,17.75
2022-12-07T01:41:04.886Z,17.27
2022-12-07T01:43:35.972Z,16.65
2022-12-07T01:46:05.134Z,19.02
2022-12-07T01:48:50.912Z,18.98
2022-12-07T01:51:18.464Z,19.88
2022-12-07T01:53:47.060Z,16.70
2022-12-07T01:56:20.645Z,21.67
2022-12-07T01:58:49.238Z,20.90
2022-12-07T02:01:16.862Z,18.88
2022-12-07T02:03:45.149Z,20.45
2022-12-07T02:06:14.705Z,20.17
2022-12-07T02:08:43.423Z,21.17
2022-12-07T02:11:11.365Z,21.23
2022-12-07T02:13:40.880Z,17.15
2022-12-07T02:16:27.660Z,17.90
2022-12-07T02:19:14.196Z,21.40
2022-12-07T02:21:52.100Z,22.15
2022-12-07T02:24:20.771Z,18.55
2022-12-07T02:27:01.500Z,25.48
2022-12-07T02:29:37.556Z,23.52
2022-12-07T02:32:19.813Z,25.35
2022-12-07T02:34:57.376Z,23.02
2022-12-07T02:37:36.676Z,20.45
2022-12-07T02:40:10.819Z,21.75
2022-12-07T02:42:40.566Z,23.42
2022-12-07T02:45:08.540Z,24.45
2022-12-07T02:47:37.598Z,22.60
2022-12-07T02:50:07.024Z,25.95
2022-12-07T02:52:34.806Z,23.73
2022-12-07T02:55:02.643Z,22.15
2022-12-07T02:57:42.118Z,23.40
2022-12-07T03:00:11.260Z,23.30
2022-12-07T03:02:57.313Z,23.95
2022-12-07T03:05:34.040Z,25.83
2022-12-07T03:08:04.572Z,24.55
2022-12-07T03:10:32.138Z,25.75
2022-12-07T03:13:04.801Z,21.85
2022-12-07T03:15:35.548Z,27.00
2022-12-07T03:18:04.307Z,23.65
2022-12-07T03:20:33.144Z,24.65
2022-12-07T03:23:01.140Z,23.60
2022-12-07T03:25:29.340Z,22.90
2022-12-07T03:28:00.085Z,25.30
2022-12-07T03:30:44.090Z,25.15
2022-12-07T03:33:15.198Z,24.45
2022-12-07T03:35:46.627Z,24.35
2022-12-07T03:38:29.554Z,23.75
2022-12-07T03:41:07.028Z,24.25
2022-12-07T03:43:34.581Z,27.20
2022-12-07T03:46:17.541Z,23.70
2022-12-07T03:48:53.203Z,23.55
2022-12-07T03:51:23.211Z,21.40
2022-12-07T03:53:54.275Z,23.23
2022-12-07T03:56:22.496Z,23.40
2022-12-07T03:58:50.779Z,23.00
2022-12-07T04:01:19.457Z,23.35
2022-12-07T04:03:47.163Z,25.45
2022-12-07T04:06:15.062Z,22.63
2022-12-07T04:08:42.742Z,28.77
2022-12-07T04:11:12.555Z,26.52
2022-12-07T04:13:58.702Z,22.38
2022-12-07T04:16:26.376Z,27.25
2022-12-07T04:18:53.963Z,26.02
2022-12-07T04:21:21.612Z,28.48
2022-12-07T04:23:49.113Z,27.92
2022-12-07T04:26:16.635Z,25.73
2022-12-07T04:28:44.339Z,25.52
2022-12-07T04:31:11.942Z,28.95
2022-12-07T04:33:39.509Z,24.38
2022-12-07T04:36:07.301Z,27.05
2022-12-07T04:38:34.987Z,24.23
2022-12-07T04:41:09.356Z,23.58
2022-12-07T04:43:37.368Z,23.65
2022-12-07T04:46:05.400Z,26.23
2022-12-07T04:48:33.014Z,18.52
2022-12-07T04:51:00.521Z,22.10
2022-12-07T04:53:28.100Z,21.67
2022-12-07T04:55:55.659Z,21.65
2022-12-07T04:58:23.201Z,19.23
2022-12-07T05:00:50.886Z,18.95
2022-12-07T05:03:18.514Z,20.33
2022-12-07T05:05:46.045Z,20.33
2022-12-07T05:08:13.705Z,20.20
2022-12-07T05:10:41.248Z,19.88
2022-12-07T05:13:08.881Z,18.48
2022-12-07T05:15:36.485Z,21.15
2022-12-07T05:18:04.389Z,16.05
2022-12-07T05:20:31.955Z,16.65
2022-12-07T05:22:59.585Z,19.00
2022-12-07T05:25:27.295Z,19.15
2022-12-07T05:27:56.399Z,19.45
2022-12-07T05:30:24.743Z,17.05
2022-12-07T05:32:52.533Z,18.40
2022-12-07T05:35:20.473Z,17.50
2022-12-07T05:37:48.005Z,19.63
2022-12-07T05:40:16.078Z,19.30
2022-12-07T05:42:44.017Z,17.42
2022-12-07T05:45:11.728Z,15.88
2022-12-07T05:47:39.730Z,17.08
2022-12-07T05:50:07.798Z,17.67
2022-12-07T05:52:35.357Z,15.07
2022-12-07T05:55:03.010Z,16.90
2022-12-07T05:57:30.670Z,14.68
2022-12-07T05:59:58.166Z,17.08
2022-12-07T06:02:25.830Z,14.10
2022-12-07T06:04:53.424Z,14.38
2022-12-07T06:07:21.081Z,14.15
2022-12-07T06:09:48.772Z,12.50
2022-12-07T06:12:34.901Z,15.00
2022-12-07T06:15:02.532Z,15.38
2022-12-07T06:17:30.170Z,14.73
2022-12-07T06:19:57.826Z,13.70
2022-12-07T06:22:25.406Z,15.70
2022-12-07T06:24:52.954Z,14.05
2022-12-07T06:27:20.598Z,12.80
2022-12-07T06:29:48.175Z,13.38
2022-12-07T06:32:16.112Z,13.93
2022-12-07T06:34:43.808Z,15.57
2022-12-07T06:37:11.667Z,13.00
2022-12-07T06:39:39.932Z,15.55
2022-12-07T06:42:07.583Z,14.02
2022-12-07T06:44:35.315Z,17.55
2022-12-07T06:47:31.963Z,13.00
2022-12-07T06:49:51.118Z,11.57
2022-12-07T06:52:19.212Z,12.95
2022-12-07T06:54:46.943Z,13.95
2022-12-07T06:57:14.594Z,16.77
2022-12-07T06:59:42.201Z,16.35
2022-12-07T07:02:10.469Z,19.83
2022-12-07T07:04:38.160Z,29.83
2022-12-07T07:07:05.850Z,29.15
2022-12-07T07:09:33.443Z,21.65
2022-12-07T07:12:01.009Z,17.70
2022-12-07T07:14:28.530Z,15.70
2022-12-07T07:16:56.143Z,15.40
2022-12-07T07:19:23.813Z,15.30
2022-12-07T07:21:51.343Z,13.57
2022-12-07T07:24:19.025Z,15.77
2022-12-07T07:26:46.625Z,16.02
2022-12-07T07:29:14.273Z,16.55
2022-12-07T07:31:41.842Z,15.95
2022-12-07T07:34:09.472Z,18.30
2022-12-07T07:36:37.067Z,14.93
2022-12-07T07:39:04.809Z,16.27
2022-12-07T07:41:33.123Z,18.83
2022-12-07T07:44:00.664Z,16.17
2022-12-07T07:46:28.435Z,17.65
2022-12-07T07:48:56.099Z,17.50
2022-12-07T07:51:23.784Z,15.55
2022-12-07T07:53:51.436Z,15.93
2022-12-07T07:56:19.082Z,17.75
2022-12-07T07:58:46.604Z,12.68
2022-12-07T08:01:14.614Z,15.10
2022-12-07T08:03:42.240Z,14.45
2022-12-07T08:06:09.846Z,15.88
2022-12-07T08:08:37.399Z,13.77
2022-12-07T08:11:08.593Z,15.13
2022-12-07T08:16:08.667Z,14.55
2022-12-07T08:18:37.630Z,15.25
2022-12-07T08:21:05.708Z,13.05
2022-12-07T08:23:39.461Z,14.43
2022-12-07T08:26:13.153Z,13.48
2022-12-07T08:28:40.888Z,14.00
2022-12-07T08:31:17.254Z,12.77
2022-12-07T08:33:45.992Z,12.60
2022-12-07T08:36:14.088Z,14.27
2022-12-07T08:38:47.767Z,15.48
2022-12-07T08:41:23.923Z,20.30
2022-12-07T08:43:52.948Z,19.27
2022-12-07T08:46:23.372Z,14.27
2022-12-07T08:48:53.245Z,16.33
2022-12-07T08:51:21.790Z,16.98
2022-12-07T08:53:50.128Z,16.23
2022-12-07T08:56:17.769Z,18.80
2022-12-07T08:58:46.109Z,15.73
2022-12-07T09:01:14.095Z,22.05
2022-12-07T09:03:44.485Z,16.05
2022-12-07T09:06:12.547Z,19.50
2022-12-07T09:08:43.462Z,23.83
2022-12-07T09:11:13.740Z,19.67
2022-12-07T09:13:41.818Z,16.95
2022-12-07T09:16:09.780Z,20.13
2022-12-07T09:18:39.180Z,19.25
2022-12-07T09:21:07.525Z,17.40
2022-12-07T09:23:35.695Z,18.52
2022-12-07T09:26:10.218Z,22.52
2022-12-07T09:28:39.735Z,21.52
2022-12-07T09:31:23.198Z,18.38
2022-12-07T09:33:59.911Z,24.23
2022-12-07T09:36:31.923Z,19.73
2022-12-07T09:38:59.911Z,19.92
2022-12-07T09:41:28.938Z,19.17
2022-12-07T09:44:07.146Z,20.17
2022-12-07T09:46:38.581Z,20.02
2022-12-07T09:49:12.276Z,21.00
2022-12-07T09:51:46.513Z,24.83
2022-12-07T09:54:18.058Z,24.35
2022-12-07T09:56:46.113Z,23.08
2022-12-07T09:59:20.723Z,23.42
2022-12-07T10:01:51.717Z,26.20
2022-12-07T10:04:27.775Z,19.95
2022-12-07T10:06:55.405Z,22.98
2022-12-07T10:09:27.726Z,21.00
2022-12-07T10:12:06.618Z,21.38
2022-12-07T10:15:06.980Z,21.00
2022-12-07T10:17:37.619Z,19.48
2022-12-07T10:20:22.408Z,18.90
2022-12-07T10:23:01.087Z,18.80
2022-12-07T10:25:31.423Z,19.30
2022-12-07T10:28:05.430Z,19.85
2022-12-07T10:30:33.521Z,21.10
2022-12-07T10:33:01.076Z,18.50
2022-12-07T10:35:34.048Z,19.85
2022-12-07T10:38:01.952Z,18.40
2022-12-07T10:40:34.741Z,18.50
2022-12-07T10:43:03.304Z,16.75
2022-12-07T10:45:31.016Z,17.30
2022-12-07T10:48:09.200Z,16.75
2022-12-07T10:50:43.065Z,16.73
2022-12-07T10:53:22.787Z,17.17
2022-12-07T10:56:09.292Z,17.67
2022-12-07T10:59:03.994Z,15.82
2022-12-07T11:01:34.422Z,17.25
2022-12-07T11:04:20.877Z,17.08
2022-12-07T11:07:02.088Z,17.73
2022-12-07T11:10:09.318Z,17.75
2022-12-07T11:12:45.521Z,16.65
2022-12-07T11:15:42.449Z,15.75
2022-12-07T11:18:31.307Z,15.05
2022-12-07T11:21:11.349Z,17.80
2022-12-07T11:23:46.069Z,15.65
2022-12-07T11:26:34.148Z,16.60
2022-12-07T11:29:13.440Z,16.05
2022-12-07T11:32:10.817Z,17.02
2022-12-07T11:34:44.427Z,14.23
2022-12-07T11:37:27.948Z,16.63
2022-12-07T11:40:11.731Z,15.40
2022-12-07T11:42:58.379Z,14.82
2022-12-07T11:45:38.444Z,14.10
2022-12-07T11:48:21.345Z,14.60
2022-12-07T11:50:59.310Z,19.30
2022-12-07T11:56:16.148Z,17.33
2022-12-07T11:58:53.225Z,18.05
2022-12-07T12:01:31.816Z,13.60
2022-12-07T12:04:12.812Z,13.93
2022-12-07T12:06:48.679Z,16.38
2022-12-07T12:17:59.646Z,11.65
2022-12-07T12:20:50.654Z,11.82
2022-12-07T12:23:20.294Z,13.93
2022-12-07T12:25:58.920Z,12.40
2022-12-07T12:28:46.814Z,12.38
2022-12-07T12:31:33.520Z,14.98
2022-12-07T12:34:02.131Z,11.80
2022-12-07T12:36:33.946Z,10.65
2022-12-07T12:39:17.130Z,12.15
2022-12-07T12:41:47.401Z,12.02
2022-12-07T12:44:20.762Z,9.93
2022-12-07T12:47:05.655Z,11.70
2022-12-07T12:49:35.262Z,10.63
2022-12-07T12:52:22.942Z,11.00
2022-12-07T12:55:08.988Z,9.80
2022-12-07T12:57:37.079Z,12.95
2022-12-07T13:00:29.002Z,10.85
2022-12-07T13:02:58.059Z,13.88
2022-12-07T13:05:28.347Z,10.73
2022-12-07T13:07:58.483Z,12.33
2022-12-07T13:10:32.025Z,11.05
2022-12-07T13:13:05.763Z,10.25
2022-12-07T13:15:33.344Z,10.25
2022-12-07T13:18:02.269Z,11.80
2022-12-07T13:20:44.265Z,9.73
2022-12-07T13:23:12.459Z,10.77
2022-12-07T13:25:45.343Z,9.95
2022-12-07T13:28:17.232Z,11.20
2022-12-07T13:30:57.362Z,10.00
2022-12-07T13:33:26.108Z,14.02
2022-12-07T13:35:56.647Z,10.30
2022-12-07T13:38:31.250Z,10.25
2022-12-07T13:41:25.325Z,13.75
2022-12-07T13:44:12.495Z,10.73
2022-12-07T13:46:50.399Z,11.27
2022-12-07T13:49:28.789Z,12.60
2022-12-07T13:51:57.096Z,13.27
2022-12-07T13:54:24.740Z,9.75
2022-12-07T13:56:53.688Z,10.18
2022-12-07T13:59:25.385Z,10.75
2022-12-07T14:01:53.878Z,11.05
2022-12-07T14:04:31.108Z,14.95
2022-12-07T14:06:58.867Z,15.77
2022-12-07T14:09:27.887Z,12.90
2022-12-07T14:11:56.183Z,12.18
2022-12-07T14:14:25.005Z,14.10
2022-12-07T14:17:23.636Z,11.15
2022-12-07T14:19:53.717Z,9.80
2022-12-07T14:22:21.332Z,14.35
2022-12-07T14:24:48.971Z,13.55
2022-12-07T14:27:20.866Z,12.20
2022-12-07T14:29:48.590Z,11.55
2022-12-07T14:32:20.724Z,10.00
2022-12-07T14:35:02.494Z,11.27
2022-12-07T14:37:31.578Z,10.55
2022-12-07T14:39:59.139Z,10.18
2022-12-07T14:42:29.498Z,10.43
2022-12-07T14:44:57.940Z,9.53
2022-12-07T14:50:18.398Z,11.05
2022-12-07T14:55:37.513Z,9.63
2022-12-07T14:58:05.123Z,10.10
2022-12-07T15:00:32.764Z,8.75
2022-12-07T15:03:00.466Z,11.45
2022-12-07T15:05:28.233Z,12.82
2022-12-07T15:07:55.906Z,10.57
2022-12-07T15:10:25.508Z,10.90
2022-12-07T15:12:53.540Z,10.60
2022-12-07T15:15:21.182Z,13.45
2022-12-07T15:17:48.683Z,12.57
2022-12-07T15:20:17.967Z,10.20
2022-12-07T15:22:45.607Z,10.05
2022-12-07T15:25:16.041Z,12.85
2022-12-07T15:27:43.662Z,11.68
2022-12-07T15:30:11.325Z,11.40
2022-12-07T15:32:38.940Z,14.32
2022-12-07T15:35:06.921Z,11.07
2022-12-07T15:37:34.706Z,15.35
2022-12-07T15:40:07.446Z,14.82
2022-12-07T15:42:35.643Z,17.17
2022-12-07T15:45:06.696Z,14.82
2022-12-07T15:48:18.671Z,12.55
2022-12-07T15:50:29.740Z,15.13
2022-12-07T15:52:57.322Z,15.25
2022-12-07T15:55:24.882Z,14.80
2022-12-07T15:57:52.406Z,12.88
2022-12-07T16:00:20.348Z,14.30
2022-12-07T16:02:47.924Z,12.43
2022-12-07T16:05:15.597Z,12.95
2022-12-07T16:07:43.193Z,12.00
2022-12-07T16:10:11.096Z,12.88
2022-12-07T16:12:38.801Z,13.77
2022-12-07T16:15:07.020Z,13.57
2022-12-07T16:17:34.985Z,16.67
2022-12-07T16:20:05.518Z,14.35
2022-12-07T16:22:33.558Z,13.55
2022-12-07T16:25:01.511Z,15.77
2022-12-07T16:27:29.463Z,16.73
2022-12-07T16:29:57.074Z,14.80
2022-12-07T16:32:24.730Z,17.67
2022-12-07T16:34:52.386Z,16.23
2022-12-07T16:37:19.937Z,16.20
2022-12-07T16:39:47.676Z,15.88
2022-12-07T16:42:15.752Z,13.70
2022-12-07T16:44:43.399Z,14.48
2022-12-07T16:47:13.625Z,18.70
2022-12-07T16:49:41.286Z,17.70
2022-12-07T16:52:19.989Z,17.88
2022-12-07T16:54:51.591Z,15.27
2022-12-07T16:57:24.096Z,14.90
2022-12-07T16:59:53.193Z,13.98
2022-12-07T17:02:20.976Z,12.63
2022-12-07T17:04:50.586Z,13.48
2022-12-07T17:07:20.799Z,11.07
2022-12-07T17:09:48.457Z,12.00
2022-12-07T17:12:16.398Z,14.85
2022-12-07T17:15:03.801Z,10.80
2022-12-07T17:17:35.460Z,14.73
2022-12-07T17:20:03.278Z,14.38
2022-12-07T17:22:31.342Z,13.65
2022-12-07T17:25:02.987Z,14.18
2022-12-07T17:27:33.146Z,12.00
2022-12-07T17:30:00.978Z,13.93
2022-12-07T17:35:14.329Z,13.88
2022-12-07T17:37:46.058Z,13.73
2022-12-07T17:40:16.968Z,14.52
2022-12-07T17:42:48.166Z,13.82
2022-12-07T17:47:43.094Z,14.88
2022-12-07T17:50:18.877Z,13.13
2022-12-07T17:53:05.229Z,13.73
2022-12-07T17:55:48.248Z,15.07
2022-12-07T17:58:22.910Z,16.92
2022-12-07T18:00:50.828Z,16.10
2022-12-07T18:03:18.622Z,14.15
2022-12-07T18:05:48.098Z,16.92
2022-12-07T18:08:15.834Z,14.63
2022-12-07T18:10:50.116Z,14.10
2022-12-07T18:13:39.916Z,16.17
2022-12-07T18:16:13.438Z,18.75
2022-12-07T18:18:41.549Z,19.20
2022-12-07T18:21:13.915Z,20.75
2022-12-07T18:23:46.662Z,18.40
2022-12-07T18:26:15.811Z,20.08
2022-12-07T18:28:48.166Z,16.98
2022-12-07T18:31:16.663Z,15.25
2022-12-07T18:33:45.400Z,16.95
2022-12-07T18:36:13.478Z,20.27
2022-12-07T18:38:45.618Z,16.08
2022-12-07T18:41:14.006Z,16.25
2022-12-07T18:43:44.383Z,14.82
2022-12-07T18:46:13.498Z,17.87
2022-12-07T18:48:42.418Z,17.25
2022-12-07T18:51:16.986Z,17.17
2022-12-07T18:53:47.354Z,21.30
2022-12-07T18:56:22.212Z,18.88
2022-12-07T18:59:17.308Z,17.77
2022-12-07T19:01:46.770Z,20.80
2022-12-07T19:04:18.671Z,16.85
2022-12-07T19:06:52.052Z,19.15
2022-12-07T19:09:25.053Z,18.98
2022-12-07T19:11:57.766Z,22.15
2022-12-07T19:14:27.158Z,20.30
2022-12-07T19:16:56.154Z,21.52
2022-12-07T19:19:24.935Z,18.83
2022-12-07T19:21:55.313Z,19.73
2022-12-07T19:24:25.466Z,18.33
2022-12-07T19:26:56.183Z,19.00
2022-12-07T19:29:30.155Z,20.38
2022-12-07T19:32:00.658Z,20.55
2022-12-07T19:34:51.340Z,18.98
2022-12-07T19:37:18.201Z,21.13
2022-12-07T19:39:48.384Z,22.88
2022-12-07T19:42:18.658Z,20.03
2022-12-07T19:44:46.430Z,19.58
2022-12-07T19:47:17.292Z,17.42
2022-12-07T19:49:45.782Z,18.33
2022-12-07T19:52:14.591Z,17.08
2022-12-07T19:54:42.679Z,15.50
2022-12-07T19:57:15.298Z,16.55
2022-12-07T19:59:43.064Z,17.17
2022-12-07T20:02:14.864Z,15.48
2022-12-07T20:04:42.495Z,19.48
2022-12-07T20:07:10.120Z,19.23
2022-12-07T20:09:37.754Z,20.88
2022-12-07T20:12:24.295Z,18.77
2022-12-07T20:14:51.894Z,22.23
2022-12-07T20:17:19.799Z,19.42
2022-12-07T20:19:47.470Z,22.33
2022-12-07T20:22:15.206Z,24.77
2022-12-07T20:24:42.784Z,23.08
2022-12-07T20:27:10.339Z,32.70
2022-12-07T20:29:37.813Z,25.60
2022-12-07T20:32:05.414Z,23.63
2022-12-07T20:34:33.104Z,23.55
2022-12-07T20:37:00.753Z,22.33
2022-12-07T20:39:28.689Z,25.75
2022-12-07T20:42:14.800Z,23.88
2022-12-07T20:44:42.317Z,21.90
2022-12-07T20:47:09.959Z,25.42
2022-12-07T20:49:40.955Z,21.30
2022-12-07T20:52:08.485Z,20.30
2022-12-07T20:54:37.370Z,20.63
2022-12-07T20:57:04.910Z,21.25
2022-12-07T20:59:36.596Z,17.63
2022-12-07T21:02:10.557Z,15.23
2022-12-07T21:04:38.106Z,18.50
2022-12-07T21:07:05.586Z,21.50
2022-12-07T21:09:33.119Z,19.25
2022-12-07T21:12:00.923Z,18.30
2022-12-07T21:14:28.496Z,18.65
2022-12-07T21:16:56.096Z,19.50
2022-12-07T21:19:24.957Z,21.38
2022-12-07T21:21:52.798Z,21.30
2022-12-07T21:24:20.363Z,18.83
2022-12-07T21:26:47.929Z,19.90
2022-12-07T21:29:15.400Z,20.08
2022-12-07T21:31:42.963Z,20.75
2022-12-07T21:34:10.498Z,19.30
2022-12-07T21:36:38.110Z,22.73
2022-12-07T21:39:06.182Z,23.42
2022-12-07T21:41:34.944Z,19.15
2022-12-07T21:44:03.253Z,20.70
2022-12-07T21:46:34.324Z,17.98
2022-12-07T21:49:06.552Z,20.42
2022-12-07T21:51:34.644Z,16.33
2022-12-07T21:54:03.132Z,16.77
2022-12-07T21:56:32.138Z,18.15
2022-12-07T21:59:00.952Z,18.98
2022-12-07T22:01:30.663Z,17.58
2022-12-07T22:03:58.493Z,19.13
2022-12-07T22:06:26.695Z,16.38
2022-12-07T22:08:55.121Z,17.63
2022-12-07T22:11:22.961Z,17.10
2022-12-07T22:14:10.615Z,17.30
2022-12-07T22:16:39.661Z,16.60
2022-12-07T22:19:08.020Z,15.88
2022-12-07T22:21:36.444Z,17.15
2022-12-07T22:24:04.776Z,16.90
2022-12-07T22:26:33.012Z,15.75
2022-12-07T22:29:01.680Z,17.88
2022-12-07T22:31:29.628Z,17.25
2022-12-07T22:33:57.573Z,15.10
2022-12-07T22:36:25.443Z,14.50
2022-12-07T22:38:53.442Z,15.73
2022-12-07T22:41:28.537Z,17.10
2022-12-07T22:43:56.721Z,16.58
2022-12-07T22:46:25.012Z,16.30
2022-12-07T22:48:53.331Z,17.00
2022-12-07T22:51:23.965Z,17.10
2022-12-07T22:53:51.918Z,18.58
2022-12-07T22:56:19.959Z,17.50
2022-12-07T22:58:47.676Z,16.85
2022-12-07T23:01:16.669Z,19.02
2022-12-07T23:03:44.540Z,16.63
2022-12-07T23:06:20.369Z,17.85
2022-12-07T23:08:48.594Z,15.38
2022-12-07T23:11:38.322Z,19.10
2022-12-07T23:14:10.014Z,16.10
2022-12-07T23:16:37.893Z,17.17
2022-12-07T23:19:05.549Z,18.55
2022-12-07T23:21:33.089Z,16.88
2022-12-07T23:24:00.643Z,17.30
2022-12-07T23:26:28.335Z,14.07
2022-12-07T23:28:55.911Z,17.33
2022-12-07T23:31:23.547Z,18.02
2022-12-07T23:33:51.279Z,18.60
2022-12-07T23:36:20.208Z,17.60
2022-12-07T23:38:52.361Z,17.08
2022-12-07T23:41:21.566Z,16.15
2022-12-07T23:43:49.337Z,20.35
2022-12-07T23:46:19.629Z,20.90
2022-12-07T23:48:49.629Z,15.87
2022-12-07T23:51:17.375Z,18.95
2022-12-07T23:53:46.162Z,20.23
2022-12-07T23:56:14.540Z,18.70
2022-12-07T23:58:43.453Z,20.17
